Portada
METAR-TAF:

METAR-TAF

Aeropuertos :

Marshfield Municipal Airport

Marshfield, Wisconsin, Estados Unidos

latitud: 44-38-17N, longitud: 090-11-15W, altitud: 389 m

Observación

El informe se hizo hace 1 hora y 7 minutos, a las 04:54 UTC
Viento 6 kt del oeste
Temperatura -1°C
Humedad 64%
Presión 1010 hPa
Visibilidad: 16.1 km
Cielo despejado

METAR: KMFI 040454Z AUTO 26006KT 10SM CLR M01/M07 A2983 RMK AO2 SLP115 T10111067

Hora: 00:01 (06:01 UTC)


TAF: falta

Observaciones y pronósticos meteorológicos de más de 4000 aeropuertos (mensajes METAR y TAF).

Los puntos amarillos y rojos representan las estaciones disponibles.

Ponga el ratón en el punto deseado para ver el nombre de la estación.

Haga clic para ver las observaciones y los pronósticos meteorológicos.

Para cambiar el mapa : haga clic en los botones verdes con una cruz de color negro para hacer un zoom, en el botón verde con un guión para alejar o en las flechas verdes para mapas adyacentes.


METAR-TAF: